Observation data for Graham on 05/26/2019      Previous  Date  Next       Current Mesonet Observations  Soil Data  Daily Summary Page  Observations in Plain Language
KGHS 260500Z 17008KT 23/17 A2995 RMK A01 T02260174  RH  076%=      5-min Rain = 0
KGHS 260505Z 17008KT 23/17 A2995 RMK A01 T02250174  RH  077%=      5-min Rain = 0
KGHS 260510Z 17009KT 23/17 A2995 RMK A01 T02250174  RH  077%=      5-min Rain = 0
KGHS 260515Z 17009KT 23/17 A2995 RMK A01 T02250174  RH  077%=      5-min Rain = 0
KGHS 260520Z 16009KT 22/17 A2995 RMK A01 T02230174  RH  077%=      5-min Rain = 0
KGHS 260525Z 16009KT 22/17 A2995 RMK A01 T02230173  RH  077%=      5-min Rain = 0
KGHS 260530Z 16009KT 22/17 A2995 RMK A01 T02230173  RH  077%=      5-min Rain = 0
KGHS 260535Z 15008KT 22/17 A2995 RMK A01 T02220173  RH  077%=      5-min Rain = 0
KGHS 260540Z 15007KT 22/17 A2995 RMK A01 T02220173  RH  078%=      5-min Rain = 0
KGHS 260545Z 15007KT 22/17 A2995 RMK A01 T02210173  RH  078%=      5-min Rain = 0
KGHS 260550Z 15008KT 22/17 A2995 RMK A01 T02200173  RH  079%=      5-min Rain = 0
KGHS 260555Z 15008KT 22/17 A2995 RMK A01 T02190173  RH  079%=      5-min Rain = 0
KGHS 260600Z 15009KT 22/17 A2995 RMK A01 T02190173  RH  079%=      5-min Rain = 0
KGHS 260605Z 15008KT 22/17 A2995 RMK A01 T02190172  RH  079%=      5-min Rain = 0
KGHS 260610Z 14009KT 22/17 A2995 RMK A01 T02190172  RH  079%=      5-min Rain = 0
KGHS 260615Z 14009KT 22/17 A2995 RMK A01 T02180172  RH  079%=      5-min Rain = 0
KGHS 260620Z 14010KT 22/17 A2995 RMK A01 T02190172  RH  079%=      5-min Rain = 0
KGHS 260625Z 15011KT 22/17 A2995 RMK A01 T02190172  RH  079%=      5-min Rain = 0
KGHS 260630Z 15011KT 22/17 A2995 RMK A01 T02200172  RH  078%=      5-min Rain = 0
KGHS 260635Z 15011KT 22/17 A2995 RMK A01 T02190172  RH  079%=      5-min Rain = 0
KGHS 260640Z 15011KT 22/17 A2995 RMK A01 T02190172  RH  079%=      5-min Rain = 0
KGHS 260645Z 15012KT 22/17 A2994 RMK A01 T02170172  RH  079%=      5-min Rain = 0
KGHS 260650Z 15012KT 22/17 A2994 RMK A01 T02160172  RH  080%=      5-min Rain = 0
KGHS 260655Z 15011KT 22/17 A2994 RMK A01 T02150171  RH  080%=      5-min Rain = 0
KGHS 260700Z 15010KT 21/17 A2994 RMK A01 T02120171  RH  081%=      5-min Rain = 0
KGHS 260705Z 16011KT 21/17 A2994 RMK A01 T02110171  RH  082%=      5-min Rain = 0
KGHS 260710Z 15012KT 21/17 A2994 RMK A01 T02100171  RH  082%=      5-min Rain = 0
KGHS 260715Z 15012KT 21/17 A2994 RMK A01 T02100171  RH  083%=      5-min Rain = 0
KGHS 260720Z 15015G20KT 21/17 A2994 RMK A01 T02110171  RH  082%=      5-min Rain = 0
KGHS 260725Z 15014KT 21/17 A2994 RMK A01 T02140171  RH  081%=      5-min Rain = 0
KGHS 260730Z 15014KT 21/17 A2995 RMK A01 T02140171  RH  081%=      5-min Rain = 0
KGHS 260735Z 15014KT 21/17 A2995 RMK A01 T02140171  RH  081%=      5-min Rain = 0
KGHS 260740Z 15013KT 21/17 A2994 RMK A01 T02140171  RH  081%=      5-min Rain = 0
KGHS 260745Z 15012KT 21/17 A2994 RMK A01 T02120171  RH  081%=      5-min Rain = 0
KGHS 260750Z 15013KT 21/17 A2994 RMK A01 T02120171  RH  082%=      5-min Rain = 0
KGHS 260755Z 15013KT 21/17 A2994 RMK A01 T02110171  RH  082%=      5-min Rain = 0
KGHS 260800Z 15013KT 21/17 A2994 RMK A01 T02100171  RH  082%=      5-min Rain = 0
KGHS 260805Z 15013KT 21/17 A2994 RMK A01 T02090171  RH  083%=      5-min Rain = 0
KGHS 260810Z 15013KT 21/17 A2994 RMK A01 T02080171  RH  083%=      5-min Rain = 0
KGHS 260815Z 15013KT 21/17 A2994 RMK A01 T02070171  RH  084%=      5-min Rain = 0
KGHS 260820Z 14011KT 21/17 A2994 RMK A01 T02060171  RH  084%=      5-min Rain = 0
KGHS 260825Z 14009KT 20/17 A2994 RMK A01 T02040171  RH  085%=      5-min Rain = 0
KGHS 260830Z 13009KT 20/17 A2994 RMK A01 T02030171  RH  086%=      5-min Rain = 0
KGHS 260835Z 13009KT 20/17 A2994 RMK A01 T02010170  RH  087%=      5-min Rain = 0
KGHS 260840Z 13009KT 20/17 A2994 RMK A01 T02000170  RH  087%=      5-min Rain = 0
KGHS 260845Z 13010KT 20/17 A2994 RMK A01 T02000170  RH  087%=      5-min Rain = 0
KGHS 260850Z 13010KT 20/17 A2994 RMK A01 T01990170  RH  088%=      5-min Rain = 0
KGHS 260855Z 13009KT 20/17 A2994 RMK A01 T01990171  RH  088%=      5-min Rain = 0
KGHS 260900Z 13009KT 20/17 A2994 RMK A01 T01990171  RH  088%=      5-min Rain = 0
KGHS 260905Z 12009KT 20/17 A2995 RMK A01 T01990171  RH  088%=      5-min Rain = 0
KGHS 260910Z 13009KT 20/17 A2995 RMK A01 T01980171  RH  089%=      5-min Rain = 0
KGHS 260915Z 13009KT 20/17 A2995 RMK A01 T01980171  RH  089%=      5-min Rain = 0
KGHS 260920Z 13008KT 20/17 A2995 RMK A01 T01970172  RH  090%=      5-min Rain = 0
KGHS 260925Z 13009KT 20/17 A2995 RMK A01 T01970172  RH  090%=      5-min Rain = 0
KGHS 260930Z 13008KT 20/17 A2995 RMK A01 T01970172  RH  090%=      5-min Rain = 0
KGHS 260935Z 13008KT 20/17 A2995 RMK A01 T01970173  RH  090%=      5-min Rain = 0
KGHS 260940Z 13007KT 20/17 A2995 RMK A01 T01970173  RH  091%=      5-min Rain = 0
KGHS 260945Z 13008KT 20/17 A2995 RMK A01 T01970174  RH  091%=      5-min Rain = 0
KGHS 260950Z 12008KT 20/17 A2995 RMK A01 T01970174  RH  091%=      5-min Rain = 0
KGHS 260955Z 12008KT 20/17 A2995 RMK A01 T01970174  RH  091%=      5-min Rain = 0
KGHS 261000Z 12008KT 20/18 A2995 RMK A01 T01970175  RH  091%=      5-min Rain = 0
KGHS 261005Z 13009KT 20/18 A2995 RMK A01 T01980175  RH  092%=      5-min Rain = 0
KGHS 261010Z 13009KT 20/18 A2996 RMK A01 T01980176  RH  092%=      5-min Rain = 0
KGHS 261015Z 13009KT 20/18 A2996 RMK A01 T01980176  RH  092%=      5-min Rain = 0
KGHS 261020Z 14009KT 20/18 A2996 RMK A01 T01980176  RH  092%=      5-min Rain = 0
KGHS 261025Z 14010KT 20/18 A2996 RMK A01 T01980177  RH  092%=      5-min Rain = 0
KGHS 261030Z 14007KT 20/18 A2996 RMK A01 T01980177  RH  092%=      5-min Rain = 0
KGHS 261035Z 14007KT 20/18 A2996 RMK A01 T01980176  RH  092%=      5-min Rain = 0
KGHS 261040Z 14006KT 20/18 A2996 RMK A01 T01970176  RH  092%=      5-min Rain = 0
KGHS 261045Z 13006KT 20/18 A2996 RMK A01 T01970177  RH  093%=      5-min Rain = 0
KGHS 261050Z 13007KT 20/18 A2996 RMK A01 T01970177  RH  093%=      5-min Rain = 0
KGHS 261055Z 13009KT 20/18 A2996 RMK A01 T01970177  RH  093%=      5-min Rain = 0
KGHS 261100Z 14009KT 20/18 A2996 RMK A01 T01970177  RH  093%=      5-min Rain = 0
KGHS 261105Z 14009KT 20/18 A2996 RMK A01 T01970177  RH  093%=      5-min Rain = 0
KGHS 261110Z 15009KT 20/18 A2996 RMK A01 T01970178  RH  093%=      5-min Rain = 0
KGHS 261115Z 14009KT 20/18 A2996 RMK A01 T01970178  RH  093%=      5-min Rain = 0
KGHS 261120Z 14008KT 20/18 A2997 RMK A01 T01970178  RH  094%=      5-min Rain = 0
KGHS 261125Z 15009KT 20/18 A2997 RMK A01 T01970178  RH  094%=      5-min Rain = 0
KGHS 261130Z 15009KT 20/18 A2997 RMK A01 T01970179  RH  094%=      5-min Rain = 0
KGHS 261135Z 15007KT 20/18 A2998 RMK A01 T01970179  RH  094%=      5-min Rain = 0
KGHS 261140Z 15009KT 20/18 A2998 RMK A01 T01970179  RH  094%=      5-min Rain = 0
KGHS 261145Z 15009KT 20/18 A2998 RMK A01 T01970179  RH  094%=      5-min Rain = 0
KGHS 261150Z 16009KT 20/18 A2998 RMK A01 T01970179  RH  094%=      5-min Rain = 0
KGHS 261155Z 16010KT 20/18 A2998 RMK A01 T01980180  RH  094%=      5-min Rain = 0
KGHS 261200Z 16010KT 20/18 A2998 RMK A01 T01980180  RH  094%=      5-min Rain = 0
KGHS 261205Z 16011KT 20/18 A2998 RMK A01 T01980180  RH  094%=      5-min Rain = 0
KGHS 261210Z 16010KT 20/18 A2998 RMK A01 T01980180  RH  094%=      5-min Rain = 0
KGHS 261215Z 15012KT 20/18 A2998 RMK A01 T01980180  RH  095%=      5-min Rain = 0
KGHS 261220Z 16010KT 20/18 A2998 RMK A01 T01980181  RH  095%=      5-min Rain = 0
KGHS 261225Z 15013KT 20/18 A2998 RMK A01 T01970181  RH  095%=      5-min Rain = 0
KGHS 261230Z 15012KT 20/18 A2998 RMK A01 T01970181  RH  095%=      5-min Rain = 0
KGHS 261235Z 16012KT 20/18 A2998 RMK A01 T01970181  RH  095%=      5-min Rain = 0
KGHS 261240Z 16012KT 20/18 A2999 RMK A01 T01970182  RH  096%=      5-min Rain = 0
KGHS 261245Z 16011KT 20/18 A2999 RMK A01 T01970182  RH  096%=      5-min Rain = 0
KGHS 261250Z 15010KT 20/18 A2999 RMK A01 T01970182  RH  096%=      5-min Rain = 0
KGHS 261255Z 16010KT 20/18 A2999 RMK A01 T01980182  RH  096%=      5-min Rain = 0
KGHS 261300Z 16010KT 20/18 A2999 RMK A01 T01980183  RH  096%=      5-min Rain = 0
KGHS 261305Z 15011KT 20/18 A2999 RMK A01 T01990183  RH  096%=      5-min Rain = 0
KGHS 261310Z 15011KT 20/18 A2999 RMK A01 T01990183  RH  095%=      5-min Rain = 0
KGHS 261315Z 15011KT 20/18 A2999 RMK A01 T01990182  RH  095%=      5-min Rain = 0
KGHS 261320Z 14011KT 20/18 A2999 RMK A01 T01990182  RH  095%=      5-min Rain = 0
KGHS 261325Z 15011KT 20/18 A2999 RMK A01 T01990182  RH  095%=      5-min Rain = 0
KGHS 261330Z 14012KT 20/18 A2999 RMK A01 T01990181  RH  094%=      5-min Rain = 0
KGHS 261335Z 14012G17KT 20/18 A2999 RMK A01 T01990181  RH  094%=      5-min Rain = 0
KGHS 261340Z 14012G17KT 20/18 A2999 RMK A01 T01990181  RH  094%=      5-min Rain = 0
KGHS 261345Z 14014KT 20/18 A2999 RMK A01 T01990180  RH  094%=      5-min Rain = 0
KGHS 261350Z 14014KT 20/18 A2998 RMK A01 T01980179  RH  094%=      5-min Rain = 0
KGHS 261355Z 15012G18KT 20/18 A2999 RMK A01 T01980179  RH  094%=      5-min Rain = 0
KGHS 261400Z 15012KT 20/18 A2999 RMK A01 T01980178  RH  093%=      5-min Rain = 0
KGHS 261405Z 14013G18KT 20/18 A2999 RMK A01 T01980178  RH  093%=      5-min Rain = 0
KGHS 261410Z 14012G17KT 20/18 A2999 RMK A01 T01990178  RH  092%=      5-min Rain = 0
KGHS 261415Z 15013G18KT 20/18 A2999 RMK A01 T01990177  RH  092%=      5-min Rain = 0
KGHS 261420Z 15015KT 20/18 A2999 RMK A01 T01990176  RH  091%=      5-min Rain = 0
KGHS 261425Z 15015G20KT 20/18 A2999 RMK A01 T02000176  RH  091%=      5-min Rain = 0
KGHS 261430Z 15015G20KT 20/18 A30 RMK A01 T02010177  RH  091%=      5-min Rain = 0
KGHS 261435Z 15016KT 20/18 A30 RMK A01 T02010177  RH  090%=      5-min Rain = 0
KGHS 261440Z 15016KT 20/18 A30 RMK A01 T02030177  RH  090%=      5-min Rain = 0
KGHS 261445Z 15016G21KT 20/18 A30 RMK A01 T02030176  RH  089%=      5-min Rain = 0
KGHS 261450Z 15016G21KT 20/18 A30 RMK A01 T02040176  RH  088%=      5-min Rain = 0
KGHS 261455Z 15015G21KT 21/18 A30 RMK A01 T02050176  RH  088%=      5-min Rain = 0
KGHS 261500Z 15014KT 21/18 A30 RMK A01 T02060176  RH  088%=      5-min Rain = 0
KGHS 261505Z 15017KT 21/18 A30 RMK A01 T02060176  RH  087%=      5-min Rain = 0
KGHS 261510Z 15014KT 21/18 A30 RMK A01 T02060176  RH  087%=      5-min Rain = 0
KGHS 261515Z 14013KT 21/18 A30 RMK A01 T02070176  RH  087%=      5-min Rain = 0
KGHS 261520Z 14012KT 21/18 A30 RMK A01 T02060176  RH  087%=      5-min Rain = 0
KGHS 261525Z 14013KT 21/18 A30 RMK A01 T02060176  RH  087%=      5-min Rain = 0
KGHS 261530Z 14013KT 21/17 A30 RMK A01 T02050174  RH  087%=      5-min Rain = 0
KGHS 261535Z 14012KT 21/18 A30 RMK A01 T02050175  RH  087%=      5-min Rain = 0
KGHS 261540Z 14013KT 21/18 A30 RMK A01 T02060175  RH  087%=      5-min Rain = 0
KGHS 261545Z 14013G18KT 21/18 A30 RMK A01 T02070176  RH  087%=      5-min Rain = 0
KGHS 261550Z 15013KT 21/18 A30 RMK A01 T02080176  RH  086%=      5-min Rain = 0
KGHS 261555Z 14013KT 21/18 A30 RMK A01 T02080176  RH  086%=      5-min Rain = 0
KGHS 261600Z 14012KT 21/18 A30 RMK A01 T02080176  RH  086%=      5-min Rain = 0
KGHS 261605Z 15012G17KT 21/18 A30 RMK A01 T02080176  RH  086%=      5-min Rain = 0
KGHS 261610Z 15010KT 21/18 A30 RMK A01 T02090178  RH  087%=      5-min Rain = 0
KGHS 261615Z 16012KT 21/18 A30 RMK A01 T02100178  RH  086%=      5-min Rain = 0
KGHS 261620Z 16012KT 21/18 A30 RMK A01 T02110179  RH  086%=      5-min Rain = 0
KGHS 261625Z 16012KT 21/18 A30 RMK A01 T02130179  RH  085%=      5-min Rain = 0
KGHS 261630Z 15014G21KT 21/18 A30 RMK A01 T02140179  RH  084%=      5-min Rain = 0
KGHS 261635Z 16016G21KT 22/18 A30 RMK A01 T02150178  RH  084%=      5-min Rain = 0
KGHS 261640Z 16013G19KT 22/18 A30 RMK A01 T02170179  RH  084%=      5-min Rain = 0
KGHS 261645Z 16012G17KT 22/18 A30 RMK A01 T02180180  RH  083%=      5-min Rain = 0
KGHS 261650Z 17017G22KT 22/18 A2999 RMK A01 T02190178  RH  081%=      5-min Rain = 0
KGHS 261655Z 17021G26KT 22/18 A2999 RMK A01 T02200176  RH  080%=      5-min Rain = 0
KGHS 261700Z 17020KT 22/18 A2999 RMK A01 T02210176  RH  080%=      5-min Rain = 0
KGHS 261705Z 17020G25KT 22/18 A2999 RMK A01 T02220177  RH  080%=      5-min Rain = 0
KGHS 261710Z 16017KT 22/18 A30 RMK A01 T02220178  RH  080%=      5-min Rain = 0
KGHS 261715Z 15017KT 22/18 A30 RMK A01 T02220179  RH  081%=      5-min Rain = 0
KGHS 261720Z 17016G22KT 22/18 A30 RMK A01 T02200178  RH  081%=      5-min Rain = 0
KGHS 261725Z 16016G22KT 22/18 A30 RMK A01 T02200178  RH  081%=      5-min Rain = 0
KGHS 261730Z 17019G24KT 22/18 A30 RMK A01 T02210177  RH  080%=      5-min Rain = 0
KGHS 261735Z 16017G24KT 22/18 A30 RMK A01 T02210178  RH  081%=      5-min Rain = 0
KGHS 261740Z 16016G23KT 22/18 A30 RMK A01 T02210178  RH  081%=      5-min Rain = 0
KGHS 261745Z 16017G24KT 22/18 A30 RMK A01 T02210179  RH  081%=      5-min Rain = 0
KGHS 261750Z 17019G24KT 22/18 A30 RMK A01 T02210178  RH  081%=      5-min Rain = 0
KGHS 261755Z 17017G22KT 22/18 A30 RMK A01 T02220178  RH  081%=      5-min Rain = 0
KGHS 261800Z 17016G21KT 22/18 A30 RMK A01 T02230179  RH  080%=      5-min Rain = 0
KGHS 261805Z 16014G22KT 23/18 A30 RMK A01 T02250181  RH  080%=      5-min Rain = 0
KGHS 261810Z 16015G23KT 23/18 A2999 RMK A01 T02250181  RH  080%=      5-min Rain = 0
KGHS 261815Z 16015G23KT 23/18 A2999 RMK A01 T02260181  RH  080%=      5-min Rain = 0
KGHS 261820Z 17015G22KT 23/18 A2999 RMK A01 T02270182  RH  080%=      5-min Rain = 0
KGHS 261825Z 17017G22KT 23/18 A2999 RMK A01 T02260181  RH  079%=      5-min Rain = 0
KGHS 261830Z 16017KT 23/18 A2998 RMK A01 T02260182  RH  080%=      5-min Rain = 0
KGHS 261835Z 16016G21KT 23/18 A2999 RMK A01 T02270182  RH  080%=      5-min Rain = 0
KGHS 261840Z 16015KT 23/18 A2999 RMK A01 T02270183  RH  080%=      5-min Rain = 0
KGHS 261845Z 16016G21KT 23/18 A2999 RMK A01 T02260182  RH  080%=      5-min Rain = 0
KGHS 261850Z 17015KT 23/18 A2999 RMK A01 T02260182  RH  080%=      5-min Rain = 0
KGHS 261855Z 16016KT 23/18 A2999 RMK A01 T02270183  RH  080%=      5-min Rain = 0
KGHS 261900Z 17014G19KT 23/18 A30 RMK A01 T02270182  RH  080%=      5-min Rain = 0
KGHS 261905Z 17015KT 23/18 A30 RMK A01 T02260182  RH  080%=      5-min Rain = 0
KGHS 261910Z 17016KT 23/18 A30 RMK A01 T02260182  RH  081%=      5-min Rain = 0
KGHS 261915Z 17014G19KT 23/18 A30 RMK A01 T02260182  RH  080%=      5-min Rain = 0
KGHS 261920Z 18013G18KT 23/18 A3001 RMK A01 T02260182  RH  080%=      5-min Rain = 0
KGHS 261925Z 18015G20KT 23/18 A3001 RMK A01 T02260182  RH  080%=      5-min Rain = 0
KGHS 261930Z 18014KT 23/18 A3001 RMK A01 T02260182  RH  080%=      5-min Rain = 0
KGHS 261935Z 18013G18KT 23/18 A3001 RMK A01 T02270182  RH  080%=      5-min Rain = 0
KGHS 261940Z 18015G20KT 23/18 A3001 RMK A01 T02270182  RH  080%=      5-min Rain = 0
KGHS 261945Z 18010G15KT 23/18 A3001 RMK A01 T02280182  RH  080%=      5-min Rain = 0
KGHS 261950Z 17010KT 23/18 A3001 RMK A01 T02280183  RH  080%=      5-min Rain = 0
KGHS 261955Z 17012G17KT 23/18 A30 RMK A01 T02290183  RH  080%=      5-min Rain = 0
KGHS 262000Z 17011G16KT 23/18 A30 RMK A01 T02300183  RH  079%=      5-min Rain = 0
KGHS 262005Z 16011G16KT 23/19 A30 RMK A01 T02310185  RH  079%=      5-min Rain = 0
KGHS 262010Z 17010KT 23/19 A2999 RMK A01 T02340186  RH  079%=      5-min Rain = 0
KGHS 262015Z 15011KT 24/19 A2999 RMK A01 T02360187  RH  078%=      5-min Rain = 0
KGHS 262020Z 15013KT 24/19 A2998 RMK A01 T02380188  RH  078%=      5-min Rain = 0
KGHS 262025Z 15014G19KT 24/19 A2998 RMK A01 T02380188  RH  077%=      5-min Rain = 0
KGHS 262030Z 15012KT 24/19 A2998 RMK A01 T02400189  RH  077%=      5-min Rain = 0
KGHS 262035Z 15013KT 24/19 A2998 RMK A01 T02430189  RH  076%=      5-min Rain = 0
KGHS 262040Z 16013G19KT 24/19 A2998 RMK A01 T02430188  RH  075%=      5-min Rain = 0
KGHS 262045Z 15012KT 25/19 A2997 RMK A01 T02450189  RH  075%=      5-min Rain = 0
KGHS 262050Z 16013KT 25/19 A2997 RMK A01 T02470190  RH  075%=      5-min Rain = 0
KGHS 262055Z 15014G19KT 25/19 A2997 RMK A01 T02480189  RH  073%=      5-min Rain = 0
KGHS 262100Z 16014G19KT 25/19 A2997 RMK A01 T02500190  RH  073%=      5-min Rain = 0
KGHS 262105Z 16015G20KT 25/19 A2997 RMK A01 T02490188  RH  073%=      5-min Rain = 0
KGHS 262110Z 16016KT 25/19 A2996 RMK A01 T02490188  RH  073%=      5-min Rain = 0
KGHS 262115Z 16015G22KT 25/19 A2996 RMK A01 T02500188  RH  072%=      5-min Rain = 0
KGHS 262120Z 16017G22KT 25/19 A2996 RMK A01 T02500186  RH  072%=      5-min Rain = 0
KGHS 262125Z 17016KT 25/19 A2996 RMK A01 T02490186  RH  072%=      5-min Rain = 0
KGHS 262130Z 17016G21KT 25/19 A2996 RMK A01 T02490185  RH  071%=      5-min Rain = 0
KGHS 262135Z 15015G21KT 25/19 A2995 RMK A01 T02500187  RH  072%=      5-min Rain = 0
KGHS 262140Z 15019G24KT 25/19 A2995 RMK A01 T02500185  RH  071%=      5-min Rain = 0
KGHS 262145Z 16019G24KT 25/18 A2994 RMK A01 T02490183  RH  070%=      5-min Rain = 0
KGHS 262150Z 16017G22KT 25/18 A2995 RMK A01 T02500183  RH  070%=      5-min Rain = 0
KGHS 262155Z 15016G21KT 25/18 A2994 RMK A01 T02500184  RH  070%=      5-min Rain = 0
KGHS 262200Z 15017G23KT 25/18 A2994 RMK A01 T02510184  RH  070%=      5-min Rain = 0
KGHS 262205Z 15019KT 25/18 A2993 RMK A01 T02500183  RH  070%=      5-min Rain = 0
KGHS 262210Z 15018KT 25/18 A2992 RMK A01 T02490183  RH  070%=      5-min Rain = 0
KGHS 262215Z 16016G22KT 25/18 A2993 RMK A01 T02490183  RH  071%=      5-min Rain = 0
KGHS 262220Z 15017G23KT 25/18 A2992 RMK A01 T02480182  RH  071%=      5-min Rain = 0
KGHS 262225Z 15015KT 25/18 A2991 RMK A01 T02470183  RH  071%=      5-min Rain = 0
KGHS 262230Z 15016KT 25/18 A2991 RMK A01 T02470183  RH  071%=      5-min Rain = 0
KGHS 262235Z 15015KT 25/18 A2991 RMK A01 T02480184  RH  071%=      5-min Rain = 0
KGHS 262240Z 15014KT 25/18 A2991 RMK A01 T02480184  RH  071%=      5-min Rain = 0
KGHS 262245Z 15015G20KT 25/18 A2991 RMK A01 T02480184  RH  071%=      5-min Rain = 0
KGHS 262250Z 15015G21KT 25/19 A299 RMK A01 T02490185  RH  071%=      5-min Rain = 0
KGHS 262255Z 14016KT 25/18 A2989 RMK A01 T02490184  RH  071%=      5-min Rain = 0
KGHS 262300Z 14015G21KT 25/18 A2988 RMK A01 T02490184  RH  071%=      5-min Rain = 0
KGHS 262305Z 14016G22KT 25/18 A2988 RMK A01 T02490184  RH  071%=      5-min Rain = 0
KGHS 262310Z 15018G24KT 25/18 A2989 RMK A01 T02490183  RH  071%=      5-min Rain = 0
KGHS 262315Z 15019G27KT 25/18 A2989 RMK A01 T02490182  RH  070%=      5-min Rain = 0
KGHS 262320Z 15020G28KT 25/18 A2989 RMK A01 T02490180  RH  069%=      5-min Rain = 0
KGHS 262325Z 14018G24KT 25/18 A2988 RMK A01 T02480180  RH  069%=      5-min Rain = 0
KGHS 262330Z 13021G27KT 25/18 A2985 RMK A01 T02480179  RH  069%=      5-min Rain = 0
KGHS 262335Z 12019G25KT 25/18 A2984 RMK A01 T02480179  RH  069%=      5-min Rain = 0
KGHS 262340Z 12021G27KT 25/18 A2983 RMK A01 T02480178  RH  068%=      5-min Rain = 0
KGHS 262345Z 13020G25KT 25/18 A2984 RMK A01 T02490178  RH  068%=      5-min Rain = 0
KGHS 262350Z 13021G32KT 25/18 A2985 RMK A01 T02490177  RH  068%=      5-min Rain = 0
KGHS 262355Z 15020G26KT 25/18 A2987 RMK A01 T02490177  RH  068%=      5-min Rain = 0
KGHS 270000Z 16017G27KT 25/18 A2989 RMK A01 T02490177  RH  068%=      5-min Rain = 0
KGHS 270005Z 18013G19KT 25/18 A299 RMK A01 T02490177  RH  067%=      5-min Rain = 0
KGHS 270010Z 17013G18KT 25/18 A299 RMK A01 T02490177  RH  067%=      5-min Rain = 0
KGHS 270015Z 17012KT 25/18 A299 RMK A01 T02500178  RH  068%=      5-min Rain = 0
KGHS 270020Z 16013G18KT 25/18 A299 RMK A01 T02510178  RH  067%=      5-min Rain = 0
KGHS 270025Z 16014G20KT 25/18 A299 RMK A01 T02520178  RH  067%=      5-min Rain = 0
KGHS 270030Z 16013KT 25/18 A2989 RMK A01 T02520179  RH  067%=      5-min Rain = 0
KGHS 270035Z 15012KT 25/18 A2989 RMK A01 T02520179  RH  067%=      5-min Rain = 0
KGHS 270040Z 15014G19KT 25/18 A2988 RMK A01 T02520179  RH  067%=      5-min Rain = 0
KGHS 270045Z 15014KT 25/18 A2988 RMK A01 T02520179  RH  068%=      5-min Rain = 0
KGHS 270050Z 15013KT 25/18 A2988 RMK A01 T02510180  RH  068%=      5-min Rain = 0
KGHS 270055Z 15014KT 25/18 A2988 RMK A01 T02500179  RH  068%=      5-min Rain = 0
KGHS 270100Z 15013G18KT 25/18 A2988 RMK A01 T02490179  RH  069%=      5-min Rain = 0
KGHS 270105Z 15015G20KT 25/18 A2987 RMK A01 T02480178  RH  069%=      5-min Rain = 0
KGHS 270110Z 15015KT 25/18 A2987 RMK A01 T02470179  RH  069%=      5-min Rain = 0
KGHS 270115Z 15016G21KT 25/18 A2987 RMK A01 T02450178  RH  070%=      5-min Rain = 0
KGHS 270120Z 15016G21KT 24/18 A2987 RMK A01 T02440178  RH  070%=      5-min Rain = 0
KGHS 270125Z 15015G20KT 24/18 A2987 RMK A01 T02430178  RH  070%=      5-min Rain = 0
KGHS 270130Z 15015G20KT 24/18 A2987 RMK A01 T02420177  RH  071%=      5-min Rain = 0
KGHS 270135Z 15015G20KT 24/18 A2987 RMK A01 T02420177  RH  071%=      5-min Rain = 0
KGHS 270140Z 15015G20KT 24/18 A2987 RMK A01 T02410177  RH  071%=      5-min Rain = 0
KGHS 270145Z 15016G21KT 24/18 A2986 RMK A01 T02400177  RH  072%=      5-min Rain = 0
KGHS 270150Z 15013KT 24/18 A2987 RMK A01 T02390177  RH  072%=      5-min Rain = 0
KGHS 270155Z 14013G18KT 24/18 A2986 RMK A01 T02370178  RH  073%=      5-min Rain = 0
KGHS 270200Z 14013G18KT 24/18 A2986 RMK A01 T02350178  RH  074%=      5-min Rain = 0
KGHS 270205Z 14012G17KT 23/18 A2986 RMK A01 T02330177  RH  075%=      5-min Rain = 0
KGHS 270210Z 14013KT 23/18 A2986 RMK A01 T02320177  RH  075%=      5-min Rain = 0
KGHS 270215Z 14013KT 23/18 A2986 RMK A01 T02310177  RH  076%=      5-min Rain = 0
KGHS 270220Z 14013G19KT 23/18 A2986 RMK A01 T02300177  RH  076%=      5-min Rain = 0
KGHS 270225Z 15013KT 23/18 A2986 RMK A01 T02300177  RH  076%=      5-min Rain = 0
KGHS 270230Z 15013G18KT 23/18 A2987 RMK A01 T02300177  RH  076%=      5-min Rain = 0
KGHS 270235Z 15012G17KT 23/18 A2987 RMK A01 T02310176  RH  075%=      5-min Rain = 0
KGHS 270240Z 15012KT 23/18 A2987 RMK A01 T02310176  RH  075%=      5-min Rain = 0
KGHS 270245Z 15010KT 23/18 A2987 RMK A01 T02310176  RH  075%=      5-min Rain = 0
KGHS 270250Z 15011G17KT 23/18 A2988 RMK A01 T02300176  RH  076%=      5-min Rain = 0
KGHS 270255Z 15013G18KT 23/18 A2988 RMK A01 T02300176  RH  075%=      5-min Rain = 0
KGHS 270300Z 16013KT 23/18 A2988 RMK A01 T02310176  RH  075%=      5-min Rain = 0
KGHS 270305Z 16012KT 23/18 A2988 RMK A01 T02300176  RH  075%=      5-min Rain = 0
KGHS 270310Z 16012KT 23/18 A2987 RMK A01 T02290176  RH  076%=      5-min Rain = 0
KGHS 270315Z 16011KT 23/18 A2987 RMK A01 T02270176  RH  077%=      5-min Rain = 0
KGHS 270320Z 15012KT 23/18 A2987 RMK A01 T02260175  RH  077%=      5-min Rain = 0
KGHS 270325Z 15011KT 23/18 A2987 RMK A01 T02260175  RH  077%=      5-min Rain = 0
KGHS 270330Z 16010KT 23/18 A2988 RMK A01 T02250175  RH  078%=      5-min Rain = 0
KGHS 270335Z 16009KT 22/18 A2988 RMK A01 T02230175  RH  078%=      5-min Rain = 0
KGHS 270340Z 16009KT 22/18 A2988 RMK A01 T02220175  RH  078%=      5-min Rain = 0
KGHS 270345Z 16009KT 22/18 A2988 RMK A01 T02220175  RH  079%=      5-min Rain = 0
KGHS 270350Z 15009KT 22/17 A2988 RMK A01 T02210174  RH  079%=      5-min Rain = 0
KGHS 270355Z 16010KT 22/17 A2988 RMK A01 T02190174  RH  080%=      5-min Rain = 0
KGHS 270400Z 16010KT 22/17 A2988 RMK A01 T02190174  RH  079%=      5-min Rain = 0
KGHS 270405Z 16009KT 22/17 A2988 RMK A01 T02190174  RH  079%=      5-min Rain = 0
KGHS 270410Z 17011KT 22/17 A2988 RMK A01 T02190173  RH  079%=      5-min Rain = 0
KGHS 270415Z 16011KT 22/17 A2988 RMK A01 T02200173  RH  078%=      5-min Rain = 0
KGHS 270420Z 16011KT 22/17 A2988 RMK A01 T02200173  RH  078%=      5-min Rain = 0
KGHS 270425Z 15011KT 22/17 A2988 RMK A01 T02190173  RH  079%=      5-min Rain = 0
KGHS 270430Z 15012KT 22/17 A2987 RMK A01 T02170173  RH  080%=      5-min Rain = 0
KGHS 270435Z 15013KT 22/17 A2987 RMK A01 T02160173  RH  081%=      5-min Rain = 0
KGHS 270440Z 15013KT 22/17 A2987 RMK A01 T02150173  RH  081%=      5-min Rain = 0
KGHS 270445Z 15011KT 21/17 A2987 RMK A01 T02140173  RH  081%=      5-min Rain = 0
KGHS 270450Z 15009KT 21/17 A2987 RMK A01 T02130173  RH  082%=      5-min Rain = 0
KGHS 270455Z 15007KT 21/17 A2987 RMK A01 T02130173  RH  082%=      5-min Rain = 0

Page generated in 0.0094 seconds.